sensor_id;sensor_type;location;lat;lon;timestamp;P1;durP1;ratioP1;P2;durP2;ratioP2
64865;SDS011;51347;41.994;21.402;2022-09-25T00:00:40;9.27;;;7.10;;
64865;SDS011;51347;41.994;21.402;2022-09-25T00:03:06;9.57;;;7.93;;
64865;SDS011;51347;41.994;21.402;2022-09-25T00:05:34;8.75;;;7.63;;
64865;SDS011;51347;41.994;21.402;2022-09-25T00:08:00;10.23;;;7.70;;
64865;SDS011;51347;41.994;21.402;2022-09-25T00:10:26;8.88;;;7.13;;
64865;SDS011;51347;41.994;21.402;2022-09-25T00:12:53;10.38;;;7.68;;
64865;SDS011;51347;41.994;21.402;2022-09-25T00:15:18;10.82;;;7.70;;
64865;SDS011;51347;41.994;21.402;2022-09-25T00:17:43;9.05;;;6.88;;
64865;SDS011;51347;41.994;21.402;2022-09-25T00:20:08;9.27;;;7.20;;
64865;SDS011;51347;41.994;21.402;2022-09-25T00:22:34;8.65;;;6.88;;
64865;SDS011;51347;41.994;21.402;2022-09-25T00:25:00;9.77;;;6.50;;
64865;SDS011;51347;41.994;21.402;2022-09-25T00:27:26;8.13;;;6.32;;
64865;SDS011;51347;41.994;21.402;2022-09-25T00:29:51;10.93;;;7.50;;
64865;SDS011;51347;41.994;21.402;2022-09-25T00:32:17;9.00;;;7.32;;
64865;SDS011;51347;41.994;21.402;2022-09-25T00:34:42;7.95;;;6.93;;
64865;SDS011;51347;41.994;21.402;2022-09-25T00:37:08;11.40;;;7.32;;
64865;SDS011;51347;41.994;21.402;2022-09-25T00:39:33;10.68;;;6.57;;
64865;SDS011;51347;41.994;21.402;2022-09-25T00:41:58;8.82;;;7.40;;
64865;SDS011;51347;41.994;21.402;2022-09-25T00:50:04;8.82;;;6.63;;
64865;SDS011;51347;41.994;21.402;2022-09-25T00:52:34;10.88;;;7.10;;
64865;SDS011;51347;41.994;21.402;2022-09-25T00:55:02;7.60;;;6.80;;
64865;SDS011;51347;41.994;21.402;2022-09-25T00:57:28;9.00;;;7.85;;
64865;SDS011;51347;41.994;21.402;2022-09-25T00:59:56;8.02;;;6.43;;
64865;SDS011;51347;41.994;21.402;2022-09-25T01:02:26;8.40;;;6.82;;
64865;SDS011;51347;41.994;21.402;2022-09-25T01:04:53;12.27;;;7.45;;
64865;SDS011;51347;41.994;21.402;2022-09-25T01:07:19;8.98;;;7.05;;
64865;SDS011;51347;41.994;21.402;2022-09-25T01:09:45;9.10;;;6.70;;
64865;SDS011;51347;41.994;21.402;2022-09-25T01:12:10;10.07;;;6.68;;
64865;SDS011;51347;41.994;21.402;2022-09-25T01:14:36;9.38;;;6.28;;
64865;SDS011;51347;41.994;21.402;2022-09-25T01:17:16;9.30;;;7.30;;
64865;SDS011;51347;41.994;21.402;2022-09-25T01:22:11;8.70;;;6.72;;
64865;SDS011;51347;41.994;21.402;2022-09-25T01:24:41;9.20;;;7.13;;
64865;SDS011;51347;41.994;21.402;2022-09-25T01:30:02;10.57;;;7.30;;
64865;SDS011;51347;41.994;21.402;2022-09-25T01:32:35;7.80;;;6.47;;
64865;SDS011;51347;41.994;21.402;2022-09-25T01:40:02;7.75;;;6.93;;
64865;SDS011;51347;41.994;21.402;2022-09-25T01:42:33;7.65;;;6.47;;
64865;SDS011;51347;41.994;21.402;2022-09-25T01:45:04;7.45;;;6.53;;
64865;SDS011;51347;41.994;21.402;2022-09-25T01:47:32;8.48;;;7.07;;
64865;SDS011;51347;41.994;21.402;2022-09-25T01:49:59;7.20;;;6.50;;
64865;SDS011;51347;41.994;21.402;2022-09-25T01:52:34;8.02;;;6.50;;
64865;SDS011;51347;41.994;21.402;2022-09-25T01:55:06;7.28;;;6.38;;
64865;SDS011;51347;41.994;21.402;2022-09-25T01:57:49;9.57;;;7.55;;
64865;SDS011;51347;41.994;21.402;2022-09-25T02:00:17;8.23;;;6.32;;
64865;SDS011;51347;41.994;21.402;2022-09-25T02:02:46;7.28;;;6.28;;
64865;SDS011;51347;41.994;21.402;2022-09-25T02:07:42;7.57;;;6.43;;
64865;SDS011;51347;41.994;21.402;2022-09-25T02:10:15;8.00;;;6.70;;
64865;SDS011;51347;41.994;21.402;2022-09-25T02:12:46;8.25;;;6.18;;
64865;SDS011;51347;41.994;21.402;2022-09-25T02:15:26;6.93;;;6.15;;
64865;SDS011;51347;41.994;21.402;2022-09-25T02:18:03;7.38;;;6.43;;
64865;SDS011;51347;41.994;21.402;2022-09-25T02:24:01;8.32;;;6.38;;
64865;SDS011;51347;41.994;21.402;2022-09-25T02:26:25;8.18;;;6.43;;
64865;SDS011;51347;41.994;21.402;2022-09-25T02:28:52;8.85;;;6.50;;
64865;SDS011;51347;41.994;21.402;2022-09-25T02:31:18;9.32;;;6.50;;
64865;SDS011;51347;41.994;21.402;2022-09-25T02:33:45;7.55;;;6.20;;
64865;SDS011;51347;41.994;21.402;2022-09-25T02:36:17;7.72;;;6.50;;
64865;SDS011;51347;41.994;21.402;2022-09-25T02:38:43;7.18;;;5.93;;
64865;SDS011;51347;41.994;21.402;2022-09-25T02:41:12;7.68;;;6.38;;
64865;SDS011;51347;41.994;21.402;2022-09-25T02:46:32;8.18;;;6.90;;
64865;SDS011;51347;41.994;21.402;2022-09-25T02:59:29;9.40;;;6.63;;
64865;SDS011;51347;41.994;21.402;2022-09-25T03:01:57;8.15;;;6.50;;
64865;SDS011;51347;41.994;21.402;2022-09-25T03:04:22;7.70;;;6.53;;
64865;SDS011;51347;41.994;21.402;2022-09-25T03:06:49;10.05;;;8.07;;
64865;SDS011;51347;41.994;21.402;2022-09-25T03:09:14;11.80;;;8.52;;
64865;SDS011;51347;41.994;21.402;2022-09-25T03:11:42;15.82;;;13.05;;
64865;SDS011;51347;41.994;21.402;2022-09-25T03:14:08;12.20;;;9.00;;
64865;SDS011;51347;41.994;21.402;2022-09-25T03:19:09;9.48;;;7.78;;
64865;SDS011;51347;41.994;21.402;2022-09-25T03:21:34;8.45;;;7.30;;
64865;SDS011;51347;41.994;21.402;2022-09-25T03:23:59;8.68;;;7.10;;
64865;SDS011;51347;41.994;21.402;2022-09-25T03:26:25;9.00;;;6.57;;
64865;SDS011;51347;41.994;21.402;2022-09-25T03:28:54;9.15;;;6.72;;
64865;SDS011;51347;41.994;21.402;2022-09-25T03:31:19;10.18;;;6.80;;
64865;SDS011;51347;41.994;21.402;2022-09-25T03:33:45;10.13;;;7.38;;
64865;SDS011;51347;41.994;21.402;2022-09-25T03:36:11;9.88;;;7.32;;
64865;SDS011;51347;41.994;21.402;2022-09-25T03:38:38;9.40;;;7.75;;
64865;SDS011;51347;41.994;21.402;2022-09-25T03:41:03;14.52;;;7.68;;
64865;SDS011;51347;41.994;21.402;2022-09-25T03:43:33;8.48;;;6.97;;
64865;SDS011;51347;41.994;21.402;2022-09-25T03:46:00;11.35;;;7.55;;
64865;SDS011;51347;41.994;21.402;2022-09-25T03:48:25;8.85;;;7.68;;
64865;SDS011;51347;41.994;21.402;2022-09-25T03:50:51;11.55;;;9.48;;
64865;SDS011;51347;41.994;21.402;2022-09-25T03:53:17;8.48;;;7.57;;
64865;SDS011;51347;41.994;21.402;2022-09-25T03:55:43;8.77;;;7.22;;
64865;SDS011;51347;41.994;21.402;2022-09-25T03:58:11;7.40;;;6.65;;
64865;SDS011;51347;41.994;21.402;2022-09-25T04:00:36;7.88;;;6.95;;
64865;SDS011;51347;41.994;21.402;2022-09-25T04:03:01;9.93;;;7.57;;
64865;SDS011;51347;41.994;21.402;2022-09-25T04:05:26;10.65;;;7.70;;
64865;SDS011;51347;41.994;21.402;2022-09-25T04:07:52;9.55;;;7.80;;
64865;SDS011;51347;41.994;21.402;2022-09-25T04:10:17;8.35;;;7.18;;
64865;SDS011;51347;41.994;21.402;2022-09-25T04:12:42;8.30;;;7.22;;
64865;SDS011;51347;41.994;21.402;2022-09-25T04:15:08;11.57;;;8.10;;
64865;SDS011;51347;41.994;21.402;2022-09-25T04:17:34;10.10;;;8.85;;
64865;SDS011;51347;41.994;21.402;2022-09-25T04:19:59;9.55;;;7.00;;
64865;SDS011;51347;41.994;21.402;2022-09-25T04:22:25;9.82;;;7.93;;
64865;SDS011;51347;41.994;21.402;2022-09-25T04:24:50;11.90;;;8.30;;
64865;SDS011;51347;41.994;21.402;2022-09-25T04:27:17;10.98;;;8.45;;
64865;SDS011;51347;41.994;21.402;2022-09-25T04:29:44;13.07;;;8.85;;
64865;SDS011;51347;41.994;21.402;2022-09-25T04:32:09;13.75;;;8.73;;
64865;SDS011;51347;41.994;21.402;2022-09-25T04:34:53;12.93;;;8.73;;
64865;SDS011;51347;41.994;21.402;2022-09-25T04:37:18;8.90;;;8.00;;
64865;SDS011;51347;41.994;21.402;2022-09-25T04:39:52;12.60;;;8.20;;
64865;SDS011;51347;41.994;21.402;2022-09-25T04:42:17;11.32;;;8.57;;
64865;SDS011;51347;41.994;21.402;2022-09-25T04:44:49;12.95;;;8.13;;
64865;SDS011;51347;41.994;21.402;2022-09-25T04:47:14;9.90;;;8.38;;
64865;SDS011;51347;41.994;21.402;2022-09-25T04:49:39;11.02;;;8.23;;
64865;SDS011;51347;41.994;21.402;2022-09-25T04:52:05;10.10;;;8.00;;
64865;SDS011;51347;41.994;21.402;2022-09-25T04:54:30;11.73;;;8.70;;
64865;SDS011;51347;41.994;21.402;2022-09-25T04:56:55;11.68;;;8.23;;
64865;SDS011;51347;41.994;21.402;2022-09-25T04:59:21;11.50;;;9.25;;
64865;SDS011;51347;41.994;21.402;2022-09-25T05:01:46;14.25;;;10.60;;
64865;SDS011;51347;41.994;21.402;2022-09-25T05:04:12;14.07;;;10.60;;
64865;SDS011;51347;41.994;21.402;2022-09-25T05:06:38;11.70;;;9.50;;
64865;SDS011;51347;41.994;21.402;2022-09-25T05:09:03;15.32;;;11.02;;
64865;SDS011;51347;41.994;21.402;2022-09-25T05:11:28;12.90;;;9.65;;
64865;SDS011;51347;41.994;21.402;2022-09-25T05:13:54;12.07;;;9.52;;
64865;SDS011;51347;41.994;21.402;2022-09-25T05:16:19;17.17;;;11.70;;
64865;SDS011;51347;41.994;21.402;2022-09-25T05:18:45;13.07;;;10.90;;
64865;SDS011;51347;41.994;21.402;2022-09-25T05:21:10;15.05;;;11.32;;
64865;SDS011;51347;41.994;21.402;2022-09-25T05:23:35;11.70;;;9.65;;
64865;SDS011;51347;41.994;21.402;2022-09-25T05:26:00;13.63;;;9.82;;
64865;SDS011;51347;41.994;21.402;2022-09-25T05:28:29;12.07;;;9.48;;
64865;SDS011;51347;41.994;21.402;2022-09-25T05:30:57;13.82;;;9.65;;
64865;SDS011;51347;41.994;21.402;2022-09-25T05:33:22;11.57;;;9.88;;
64865;SDS011;51347;41.994;21.402;2022-09-25T05:35:47;14.70;;;10.48;;
64865;SDS011;51347;41.994;21.402;2022-09-25T05:38:13;15.05;;;10.65;;
64865;SDS011;51347;41.994;21.402;2022-09-25T05:40:38;13.48;;;10.43;;
64865;SDS011;51347;41.994;21.402;2022-09-25T05:43:04;14.38;;;10.02;;
64865;SDS011;51347;41.994;21.402;2022-09-25T05:45:32;14.07;;;10.90;;
64865;SDS011;51347;41.994;21.402;2022-09-25T05:48:02;16.80;;;11.82;;
64865;SDS011;51347;41.994;21.402;2022-09-25T05:50:28;13.85;;;11.85;;
64865;SDS011;51347;41.994;21.402;2022-09-25T05:52:55;16.00;;;11.98;;
64865;SDS011;51347;41.994;21.402;2022-09-25T05:55:20;24.15;;;15.13;;
64865;SDS011;51347;41.994;21.402;2022-09-25T05:57:45;26.67;;;15.63;;
64865;SDS011;51347;41.994;21.402;2022-09-25T06:00:11;26.63;;;17.42;;
64865;SDS011;51347;41.994;21.402;2022-09-25T06:02:38;19.20;;;13.52;;
64865;SDS011;51347;41.994;21.402;2022-09-25T06:05:03;24.55;;;14.23;;
64865;SDS011;51347;41.994;21.402;2022-09-25T06:07:28;21.60;;;14.95;;
64865;SDS011;51347;41.994;21.402;2022-09-25T06:09:54;30.35;;;19.75;;
64865;SDS011;51347;41.994;21.402;2022-09-25T06:12:19;28.10;;;19.50;;
64865;SDS011;51347;41.994;21.402;2022-09-25T06:14:47;32.63;;;20.60;;
64865;SDS011;51347;41.994;21.402;2022-09-25T06:17:12;20.60;;;16.08;;
64865;SDS011;51347;41.994;21.402;2022-09-25T06:19:38;27.98;;;17.55;;
64865;SDS011;51347;41.994;21.402;2022-09-25T06:22:03;27.23;;;18.05;;
64865;SDS011;51347;41.994;21.402;2022-09-25T06:24:28;30.98;;;19.30;;
64865;SDS011;51347;41.994;21.402;2022-09-25T06:26:54;29.40;;;18.75;;
64865;SDS011;51347;41.994;21.402;2022-09-25T06:29:19;25.95;;;16.73;;
64865;SDS011;51347;41.994;21.402;2022-09-25T06:31:44;27.27;;;17.08;;
64865;SDS011;51347;41.994;21.402;2022-09-25T06:34:10;27.25;;;18.10;;
64865;SDS011;51347;41.994;21.402;2022-09-25T06:36:36;23.48;;;15.35;;
64865;SDS011;51347;41.994;21.402;2022-09-25T06:39:02;22.80;;;14.90;;
64865;SDS011;51347;41.994;21.402;2022-09-25T06:41:29;23.13;;;14.38;;
64865;SDS011;51347;41.994;21.402;2022-09-25T06:43:54;22.85;;;16.25;;
64865;SDS011;51347;41.994;21.402;2022-09-25T06:46:19;30.45;;;20.27;;
64865;SDS011;51347;41.994;21.402;2022-09-25T06:48:51;28.10;;;19.17;;
64865;SDS011;51347;41.994;21.402;2022-09-25T06:51:20;32.42;;;19.45;;
64865;SDS011;51347;41.994;21.402;2022-09-25T06:53:45;30.90;;;18.17;;
64865;SDS011;51347;41.994;21.402;2022-09-25T06:56:11;27.77;;;18.63;;
64865;SDS011;51347;41.994;21.402;2022-09-25T06:58:36;23.25;;;17.65;;
64865;SDS011;51347;41.994;21.402;2022-09-25T07:01:02;23.90;;;15.82;;
64865;SDS011;51347;41.994;21.402;2022-09-25T07:03:27;21.25;;;13.88;;
64865;SDS011;51347;41.994;21.402;2022-09-25T07:06:21;19.88;;;14.20;;
64865;SDS011;51347;41.994;21.402;2022-09-25T07:08:47;22.92;;;13.93;;
64865;SDS011;51347;41.994;21.402;2022-09-25T07:11:14;21.20;;;13.88;;
64865;SDS011;51347;41.994;21.402;2022-09-25T07:13:40;20.38;;;13.80;;
64865;SDS011;51347;41.994;21.402;2022-09-25T07:16:09;18.70;;;14.65;;
64865;SDS011;51347;41.994;21.402;2022-09-25T07:18:35;23.70;;;15.85;;
64865;SDS011;51347;41.994;21.402;2022-09-25T07:21:01;20.55;;;15.48;;
64865;SDS011;51347;41.994;21.402;2022-09-25T07:23:26;22.88;;;14.52;;
64865;SDS011;51347;41.994;21.402;2022-09-25T07:25:53;17.30;;;12.98;;
64865;SDS011;51347;41.994;21.402;2022-09-25T07:28:21;17.48;;;12.60;;
64865;SDS011;51347;41.994;21.402;2022-09-25T07:30:46;23.75;;;12.88;;
64865;SDS011;51347;41.994;21.402;2022-09-25T07:33:13;19.13;;;13.85;;
64865;SDS011;51347;41.994;21.402;2022-09-25T07:35:38;17.80;;;13.45;;
64865;SDS011;51347;41.994;21.402;2022-09-25T07:38:04;23.63;;;15.10;;
64865;SDS011;51347;41.994;21.402;2022-09-25T07:40:29;23.13;;;15.35;;
64865;SDS011;51347;41.994;21.402;2022-09-25T07:43:02;25.85;;;15.93;;
64865;SDS011;51347;41.994;21.402;2022-09-25T07:45:31;25.10;;;15.10;;
64865;SDS011;51347;41.994;21.402;2022-09-25T07:48:00;22.02;;;15.18;;
64865;SDS011;51347;41.994;21.402;2022-09-25T07:50:29;21.73;;;14.57;;
64865;SDS011;51347;41.994;21.402;2022-09-25T07:52:54;23.15;;;15.25;;
64865;SDS011;51347;41.994;21.402;2022-09-25T07:55:20;24.98;;;16.45;;
64865;SDS011;51347;41.994;21.402;2022-09-25T07:57:46;18.48;;;13.65;;
64865;SDS011;51347;41.994;21.402;2022-09-25T08:00:13;22.85;;;14.02;;
64865;SDS011;51347;41.994;21.402;2022-09-25T08:02:38;19.52;;;13.07;;
64865;SDS011;51347;41.994;21.402;2022-09-25T08:05:04;18.80;;;12.75;;
64865;SDS011;51347;41.994;21.402;2022-09-25T08:07:29;22.23;;;16.88;;
64865;SDS011;51347;41.994;21.402;2022-09-25T08:09:54;20.42;;;14.55;;
64865;SDS011;51347;41.994;21.402;2022-09-25T08:12:20;21.48;;;13.13;;
64865;SDS011;51347;41.994;21.402;2022-09-25T08:14:48;18.77;;;13.63;;
64865;SDS011;51347;41.994;21.402;2022-09-25T08:17:13;19.98;;;14.90;;
64865;SDS011;51347;41.994;21.402;2022-09-25T08:19:38;23.80;;;15.38;;
64865;SDS011;51347;41.994;21.402;2022-09-25T08:22:04;27.80;;;16.88;;
64865;SDS011;51347;41.994;21.402;2022-09-25T08:24:29;20.35;;;13.73;;
64865;SDS011;51347;41.994;21.402;2022-09-25T08:26:54;20.40;;;13.43;;
64865;SDS011;51347;41.994;21.402;2022-09-25T08:29:20;24.70;;;13.73;;
64865;SDS011;51347;41.994;21.402;2022-09-25T08:31:45;23.08;;;14.13;;
64865;SDS011;51347;41.994;21.402;2022-09-25T08:34:10;22.65;;;14.50;;
64865;SDS011;51347;41.994;21.402;2022-09-25T08:36:35;20.83;;;12.73;;
64865;SDS011;51347;41.994;21.402;2022-09-25T08:39:13;19.48;;;13.43;;
64865;SDS011;51347;41.994;21.402;2022-09-25T08:46:40;19.17;;;11.40;;
64865;SDS011;51347;41.994;21.402;2022-09-25T08:49:26;18.08;;;9.82;;
64865;SDS011;51347;41.994;21.402;2022-09-25T08:51:52;16.92;;;11.57;;
64865;SDS011;51347;41.994;21.402;2022-09-25T08:54:26;14.88;;;11.85;;
64865;SDS011;51347;41.994;21.402;2022-09-25T08:56:53;13.38;;;9.57;;
64865;SDS011;51347;41.994;21.402;2022-09-25T08:59:30;15.50;;;11.38;;
64865;SDS011;51347;41.994;21.402;2022-09-25T09:02:19;19.92;;;11.00;;
64865;SDS011;51347;41.994;21.402;2022-09-25T09:04:50;12.20;;;9.30;;
64865;SDS011;51347;41.994;21.402;2022-09-25T09:09:59;16.00;;;9.48;;
64865;SDS011;51347;41.994;21.402;2022-09-25T09:14:55;11.25;;;6.82;;
64865;SDS011;51347;41.994;21.402;2022-09-25T09:17:26;7.72;;;5.95;;
64865;SDS011;51347;41.994;21.402;2022-09-25T09:19:58;9.13;;;6.78;;
64865;SDS011;51347;41.994;21.402;2022-09-25T09:22:30;12.93;;;6.32;;
64865;SDS011;51347;41.994;21.402;2022-09-25T09:37:55;9.00;;;5.15;;
64865;SDS011;51347;41.994;21.402;2022-09-25T09:40:31;11.48;;;5.80;;
64865;SDS011;51347;41.994;21.402;2022-09-25T09:43:21;7.00;;;5.10;;
64865;SDS011;51347;41.994;21.402;2022-09-25T09:46:16;5.65;;;4.70;;
64865;SDS011;51347;41.994;21.402;2022-09-25T09:49:04;10.27;;;5.32;;
64865;SDS011;51347;41.994;21.402;2022-09-25T09:51:35;8.93;;;4.50;;
64865;SDS011;51347;41.994;21.402;2022-09-25T09:54:30;6.72;;;4.68;;
64865;SDS011;51347;41.994;21.402;2022-09-25T09:56:50;7.10;;;4.43;;
64865;SDS011;51347;41.994;21.402;2022-09-25T09:59:20;6.75;;;4.65;;
64865;SDS011;51347;41.994;21.402;2022-09-25T10:04:23;7.97;;;4.40;;
64865;SDS011;51347;41.994;21.402;2022-09-25T10:06:54;8.50;;;4.03;;
64865;SDS011;51347;41.994;21.402;2022-09-25T10:09:22;7.82;;;4.05;;
64865;SDS011;51347;41.994;21.402;2022-09-25T10:11:51;6.35;;;4.65;;
64865;SDS011;51347;41.994;21.402;2022-09-25T10:14:19;4.72;;;3.15;;
64865;SDS011;51347;41.994;21.402;2022-09-25T10:16:47;4.18;;;3.05;;
64865;SDS011;51347;41.994;21.402;2022-09-25T10:19:17;5.80;;;4.03;;
64865;SDS011;51347;41.994;21.402;2022-09-25T10:22:02;5.10;;;3.47;;
64865;SDS011;51347;41.994;21.402;2022-09-25T10:27:26;4.75;;;3.60;;
64865;SDS011;51347;41.994;21.402;2022-09-25T10:32:26;5.40;;;3.58;;
64865;SDS011;51347;41.994;21.402;2022-09-25T10:34:52;6.35;;;3.70;;
64865;SDS011;51347;41.994;21.402;2022-09-25T10:37:18;6.07;;;3.60;;
64865;SDS011;51347;41.994;21.402;2022-09-25T10:39:56;3.85;;;3.28;;
64865;SDS011;51347;41.994;21.402;2022-09-25T10:42:31;12.07;;;3.25;;
64865;SDS011;51347;41.994;21.402;2022-09-25T10:44:58;5.10;;;2.55;;
64865;SDS011;51347;41.994;21.402;2022-09-25T10:47:27;4.05;;;3.20;;
64865;SDS011;51347;41.994;21.402;2022-09-25T10:50:17;6.03;;;3.30;;
64865;SDS011;51347;41.994;21.402;2022-09-25T10:52:45;3.85;;;3.33;;
64865;SDS011;51347;41.994;21.402;2022-09-25T10:55:19;4.70;;;3.25;;
64865;SDS011;51347;41.994;21.402;2022-09-25T10:57:45;5.43;;;3.33;;
64865;SDS011;51347;41.994;21.402;2022-09-25T11:00:19;5.85;;;3.53;;
64865;SDS011;51347;41.994;21.402;2022-09-25T11:02:44;4.00;;;2.78;;
64865;SDS011;51347;41.994;21.402;2022-09-25T11:05:14;11.48;;;5.07;;
64865;SDS011;51347;41.994;21.402;2022-09-25T11:07:45;7.57;;;3.73;;
64865;SDS011;51347;41.994;21.402;2022-09-25T11:10:20;3.47;;;3.08;;
64865;SDS011;51347;41.994;21.402;2022-09-25T11:12:46;4.97;;;3.28;;
64865;SDS011;51347;41.994;21.402;2022-09-25T11:15:15;7.97;;;3.53;;
64865;SDS011;51347;41.994;21.402;2022-09-25T11:17:42;7.07;;;3.35;;
64865;SDS011;51347;41.994;21.402;2022-09-25T11:23:02;6.65;;;3.17;;
64865;SDS011;51347;41.994;21.402;2022-09-25T11:30:19;5.93;;;3.20;;
64865;SDS011;51347;41.994;21.402;2022-09-25T11:43:09;3.35;;;2.58;;
64865;SDS011;51347;41.994;21.402;2022-09-25T11:45:39;3.90;;;2.60;;
64865;SDS011;51347;41.994;21.402;2022-09-25T11:48:09;5.10;;;2.65;;
64865;SDS011;51347;41.994;21.402;2022-09-25T11:50:56;3.88;;;2.70;;
64865;SDS011;51347;41.994;21.402;2022-09-25T11:58:51;3.85;;;2.88;;
64865;SDS011;51347;41.994;21.402;2022-09-25T12:01:43;9.93;;;4.95;;
64865;SDS011;51347;41.994;21.402;2022-09-25T12:14:30;3.42;;;2.42;;
64865;SDS011;51347;41.994;21.402;2022-09-25T12:19:45;7.72;;;4.90;;
64865;SDS011;51347;41.994;21.402;2022-09-25T12:22:15;3.90;;;2.85;;
64865;SDS011;51347;41.994;21.402;2022-09-25T12:27:23;4.47;;;2.33;;
64865;SDS011;51347;41.994;21.402;2022-09-25T12:32:49;3.55;;;2.22;;
64865;SDS011;51347;41.994;21.402;2022-09-25T12:37:50;4.38;;;2.58;;
64865;SDS011;51347;41.994;21.402;2022-09-25T12:40:28;3.55;;;2.53;;
64865;SDS011;51347;41.994;21.402;2022-09-25T12:42:59;4.28;;;2.75;;
64865;SDS011;51347;41.994;21.402;2022-09-25T12:48:15;4.47;;;3.03;;
64865;SDS011;51347;41.994;21.402;2022-09-25T13:01:20;2.95;;;2.67;;
64865;SDS011;51347;41.994;21.402;2022-09-25T13:03:49;3.78;;;3.30;;
64865;SDS011;51347;41.994;21.402;2022-09-25T13:06:27;4.38;;;3.25;;
64865;SDS011;51347;41.994;21.402;2022-09-25T13:09:06;5.55;;;2.60;;
64865;SDS011;51347;41.994;21.402;2022-09-25T13:11:57;4.28;;;2.92;;
64865;SDS011;51347;41.994;21.402;2022-09-25T13:16:52;2.75;;;2.10;;
64865;SDS011;51347;41.994;21.402;2022-09-25T13:19:25;2.85;;;2.10;;
64865;SDS011;51347;41.994;21.402;2022-09-25T13:21:50;3.03;;;1.90;;
64865;SDS011;51347;41.994;21.402;2022-09-25T13:24:23;3.58;;;2.30;;
64865;SDS011;51347;41.994;21.402;2022-09-25T13:26:52;3.40;;;2.60;;
64865;SDS011;51347;41.994;21.402;2022-09-25T13:29:22;2.45;;;2.25;;
64865;SDS011;51347;41.994;21.402;2022-09-25T13:31:49;2.65;;;2.05;;
64865;SDS011;51347;41.994;21.402;2022-09-25T13:34:17;4.28;;;2.20;;
64865;SDS011;51347;41.994;21.402;2022-09-25T13:39:16;1.52;;;1.42;;
64865;SDS011;51347;41.994;21.402;2022-09-25T13:42:11;7.50;;;2.00;;
64865;SDS011;51347;41.994;21.402;2022-09-25T13:49:54;3.78;;;1.77;;
64865;SDS011;51347;41.994;21.402;2022-09-25T13:58:19;5.97;;;2.50;;
64865;SDS011;51347;41.994;21.402;2022-09-25T14:00:27;2.85;;;2.03;;
64865;SDS011;51347;41.994;21.402;2022-09-25T14:05:59;2.15;;;1.85;;
64865;SDS011;51347;41.994;21.402;2022-09-25T14:08:25;3.13;;;1.95;;
64865;SDS011;51347;41.994;21.402;2022-09-25T14:10:53;3.10;;;2.42;;
64865;SDS011;51347;41.994;21.402;2022-09-25T14:13:20;5.00;;;2.33;;
64865;SDS011;51347;41.994;21.402;2022-09-25T14:15:48;3.15;;;2.33;;
64865;SDS011;51347;41.994;21.402;2022-09-25T14:18:15;4.20;;;2.78;;
64865;SDS011;51347;41.994;21.402;2022-09-25T14:20:43;3.15;;;2.17;;
64865;SDS011;51347;41.994;21.402;2022-09-25T14:23:11;7.13;;;2.78;;
64865;SDS011;51347;41.994;21.402;2022-09-25T14:25:37;5.35;;;2.42;;
64865;SDS011;51347;41.994;21.402;2022-09-25T14:28:20;4.95;;;2.90;;
64865;SDS011;51347;41.994;21.402;2022-09-25T14:36:15;2.58;;;2.25;;
64865;SDS011;51347;41.994;21.402;2022-09-25T14:46:41;5.30;;;3.30;;
64865;SDS011;51347;41.994;21.402;2022-09-25T14:51:52;5.90;;;3.30;;
64865;SDS011;51347;41.994;21.402;2022-09-25T14:54:27;7.85;;;3.42;;
64865;SDS011;51347;41.994;21.402;2022-09-25T14:56:54;4.00;;;2.90;;
64865;SDS011;51347;41.994;21.402;2022-09-25T14:59:39;4.82;;;2.75;;
64865;SDS011;51347;41.994;21.402;2022-09-25T15:02:19;7.93;;;3.47;;
64865;SDS011;51347;41.994;21.402;2022-09-25T15:04:47;4.93;;;2.90;;
64865;SDS011;51347;41.994;21.402;2022-09-25T15:07:17;4.75;;;2.80;;
64865;SDS011;51347;41.994;21.402;2022-09-25T15:09:45;4.65;;;2.83;;
64865;SDS011;51347;41.994;21.402;2022-09-25T15:12:15;3.15;;;2.20;;
64865;SDS011;51347;41.994;21.402;2022-09-25T15:17:28;5.35;;;2.92;;
64865;SDS011;51347;41.994;21.402;2022-09-25T15:19:54;4.22;;;2.88;;
64865;SDS011;51347;41.994;21.402;2022-09-25T15:22:22;3.33;;;2.60;;
64865;SDS011;51347;41.994;21.402;2022-09-25T15:24:51;5.03;;;3.00;;
64865;SDS011;51347;41.994;21.402;2022-09-25T15:27:18;5.35;;;3.58;;
64865;SDS011;51347;41.994;21.402;2022-09-25T15:29:44;6.05;;;3.67;;
64865;SDS011;51347;41.994;21.402;2022-09-25T15:32:17;6.82;;;3.83;;
64865;SDS011;51347;41.994;21.402;2022-09-25T15:34:43;8.23;;;4.68;;
64865;SDS011;51347;41.994;21.402;2022-09-25T15:39:45;9.63;;;5.97;;
64865;SDS011;51347;41.994;21.402;2022-09-25T15:42:13;8.48;;;5.72;;
64865;SDS011;51347;41.994;21.402;2022-09-25T15:44:38;11.60;;;5.38;;
64865;SDS011;51347;41.994;21.402;2022-09-25T15:47:04;7.43;;;4.95;;
64865;SDS011;51347;41.994;21.402;2022-09-25T15:49:31;13.30;;;5.05;;
64865;SDS011;51347;41.994;21.402;2022-09-25T15:52:01;10.77;;;4.55;;
64865;SDS011;51347;41.994;21.402;2022-09-25T15:54:43;13.68;;;4.32;;
64865;SDS011;51347;41.994;21.402;2022-09-25T15:59:37;8.57;;;5.15;;
64865;SDS011;51347;41.994;21.402;2022-09-25T16:02:23;7.13;;;4.13;;
64865;SDS011;51347;41.994;21.402;2022-09-25T16:05:08;8.10;;;4.03;;
64865;SDS011;51347;41.994;21.402;2022-09-25T16:07:36;6.25;;;3.92;;
64865;SDS011;51347;41.994;21.402;2022-09-25T16:12:29;5.50;;;4.13;;
64865;SDS011;51347;41.994;21.402;2022-09-25T16:14:56;6.13;;;4.13;;
64865;SDS011;51347;41.994;21.402;2022-09-25T16:17:25;8.68;;;4.68;;
64865;SDS011;51347;41.994;21.402;2022-09-25T16:20:01;6.70;;;3.95;;
64865;SDS011;51347;41.994;21.402;2022-09-25T16:22:27;7.15;;;4.53;;
64865;SDS011;51347;41.994;21.402;2022-09-25T16:24:55;7.15;;;4.63;;
64865;SDS011;51347;41.994;21.402;2022-09-25T16:27:31;5.68;;;4.18;;
64865;SDS011;51347;41.994;21.402;2022-09-25T16:29:58;31.33;;;17.58;;
64865;SDS011;51347;41.994;21.402;2022-09-25T16:32:24;34.58;;;19.90;;
64865;SDS011;51347;41.994;21.402;2022-09-25T16:34:55;34.78;;;20.23;;
64865;SDS011;51347;41.994;21.402;2022-09-25T16:37:22;29.65;;;19.17;;
64865;SDS011;51347;41.994;21.402;2022-09-25T16:42:32;19.05;;;11.90;;
64865;SDS011;51347;41.994;21.402;2022-09-25T16:48:00;15.73;;;7.43;;
64865;SDS011;51347;41.994;21.402;2022-09-25T16:50:27;12.23;;;7.47;;
64865;SDS011;51347;41.994;21.402;2022-09-25T16:52:52;12.40;;;7.20;;
64865;SDS011;51347;41.994;21.402;2022-09-25T16:55:24;11.98;;;7.32;;
64865;SDS011;51347;41.994;21.402;2022-09-25T16:57:51;9.05;;;4.97;;
64865;SDS011;51347;41.994;21.402;2022-09-25T17:00:19;11.13;;;6.47;;
64865;SDS011;51347;41.994;21.402;2022-09-25T17:02:45;10.50;;;5.78;;
64865;SDS011;51347;41.994;21.402;2022-09-25T17:05:16;8.00;;;5.60;;
64865;SDS011;51347;41.994;21.402;2022-09-25T17:10:10;8.60;;;5.97;;
64865;SDS011;51347;41.994;21.402;2022-09-25T17:12:35;14.73;;;8.95;;
64865;SDS011;51347;41.994;21.402;2022-09-25T17:15:01;14.25;;;9.45;;
64865;SDS011;51347;41.994;21.402;2022-09-25T17:17:29;14.80;;;9.88;;
64865;SDS011;51347;41.994;21.402;2022-09-25T17:19:55;16.20;;;10.35;;
64865;SDS011;51347;41.994;21.402;2022-09-25T17:22:20;27.52;;;18.15;;
64865;SDS011;51347;41.994;21.402;2022-09-25T17:24:48;24.40;;;16.85;;
64865;SDS011;51347;41.994;21.402;2022-09-25T17:27:15;21.23;;;15.43;;
64865;SDS011;51347;41.994;21.402;2022-09-25T17:29:41;23.33;;;15.00;;
64865;SDS011;51347;41.994;21.402;2022-09-25T17:32:10;24.80;;;15.27;;
64865;SDS011;51347;41.994;21.402;2022-09-25T17:34:35;24.20;;;15.48;;